Time;durP1;ratioP1;P1;durP2;ratioP2;P2;SDS_P1;SDS_P2;PMS_P1;PMS_P2;Temp;Humidity;BMP_temperature;BMP_pressure;BME280_temperature;BME280_humidity;BME280_pressure;Samples;Min_cycle;Max_cycle;Signal;HPM_P1;HPM_P2
2022/05/05 00:02:07;;;;;;;0.80;0.50;;;11.00;99.90;;;;;;4991663;28;20423;-69
2022/05/05 00:04:33;;;;;;;0.80;0.50;;;10.90;99.90;;;;;;4991801;28;20200;-69
2022/05/05 00:07:01;;;;;;;0.80;0.50;;;10.90;99.90;;;;;;4996377;28;20204;-69
2022/05/05 00:09:28;;;;;;;0.80;0.50;;;10.90;99.90;;;;;;5013634;28;20439;-68
2022/05/05 00:14:39;;;;;;;2.30;0.60;;;10.90;99.90;;;;;;5014078;28;20419;-69
2022/05/05 00:17:07;;;;;;;1.03;0.70;;;11.00;99.90;;;;;;5001686;28;20474;-69
2022/05/05 00:19:37;;;;;;;0.80;0.50;;;11.00;99.90;;;;;;4995625;28;20498;-68
2022/05/05 00:22:05;;;;;;;0.80;0.50;;;11.10;99.90;;;;;;4995278;28;20419;-68
2022/05/05 00:24:31;;;;;;;0.90;0.60;;;11.10;99.90;;;;;;4995362;28;20550;-68
2022/05/05 00:26:57;;;;;;;0.90;0.50;;;11.20;99.90;;;;;;4995473;28;20510;-68
2022/05/05 00:29:23;;;;;;;0.80;0.50;;;11.30;99.90;;;;;;4995534;28;20438;-69
2022/05/05 00:31:49;;;;;;;0.80;0.50;;;11.40;99.90;;;;;;4995179;28;20252;-68
2022/05/05 00:34:15;;;;;;;0.90;0.60;;;11.50;99.90;;;;;;4995072;28;20428;-68
2022/05/05 00:36:41;;;;;;;0.80;0.50;;;11.50;99.90;;;;;;4995452;28;20460;-68
2022/05/05 00:39:08;;;;;;;0.80;0.60;;;11.60;99.90;;;;;;4995255;28;20969;-67
2022/05/05 00:41:45;;;;;;;0.80;0.53;;;11.70;99.90;;;;;;4995302;28;20434;-68
2022/05/05 00:44:12;;;;;;;0.80;0.60;;;11.80;99.90;;;;;;4994777;28;20487;-68
2022/05/05 00:46:38;;;;;;;1.30;0.70;;;11.80;99.90;;;;;;5005905;28;20423;-67
2022/05/05 00:49:05;;;;;;;0.80;0.50;;;11.90;99.90;;;;;;4995485;28;20502;-69
2022/05/05 00:51:31;;;;;;;0.80;0.60;;;11.90;99.90;;;;;;4995294;28;20418;-67
2022/05/05 00:53:57;;;;;;;1.00;0.60;;;11.90;99.90;;;;;;5007313;28;20447;-68
2022/05/05 00:56:24;;;;;;;0.90;0.50;;;11.90;99.90;;;;;;4999963;28;20864;-68
2022/05/05 00:58:51;;;;;;;0.80;0.50;;;11.90;99.90;;;;;;4994884;28;20436;-69
2022/05/05 01:01:21;;;;;;;0.77;0.50;;;11.90;99.90;;;;;;4995236;28;20416;-68
2022/05/05 01:03:48;;;;;;;0.80;0.50;;;11.90;99.90;;;;;;4994736;28;20420;-69
2022/05/05 01:06:14;;;;;;;0.80;0.60;;;11.90;99.90;;;;;;4993503;28;20420;-68
2022/05/05 01:08:40;;;;;;;0.80;0.50;;;11.90;99.90;;;;;;4994899;28;20423;-68
2022/05/05 01:11:07;;;;;;;0.80;0.50;;;11.90;99.90;;;;;;4994873;28;20458;-68
2022/05/05 01:13:36;;;;;;;1.00;0.80;;;11.90;99.90;;;;;;4994999;28;20415;-67
2022/05/05 01:16:04;;;;;;;0.80;0.50;;;11.90;99.90;;;;;;4994577;28;20455;-68
2022/05/05 01:18:29;;;;;;;0.80;0.60;;;11.90;99.90;;;;;;4994375;28;20506;-69
2022/05/05 01:20:55;;;;;;;0.80;0.50;;;12.00;99.90;;;;;;4994628;28;20400;-68
2022/05/05 01:23:24;;;;;;;0.80;0.50;;;12.00;99.90;;;;;;4999162;28;20193;-68
2022/05/05 01:28:39;;;;;;;0.80;0.50;;;12.00;99.90;;;;;;4993890;28;20451;-67
2022/05/05 01:31:07;;;;;;;0.80;0.50;;;12.10;99.90;;;;;;4997260;28;20830;-68
2022/05/05 01:33:33;;;;;;;0.80;0.50;;;12.10;99.90;;;;;;5015011;28;20443;-68
2022/05/05 01:35:59;;;;;;;0.80;0.50;;;12.10;99.90;;;;;;4994340;28;20487;-68
2022/05/05 01:38:36;;;;;;;0.80;0.50;;;12.20;99.90;;;;;;4994147;28;20185;-68
2022/05/05 01:41:05;;;;;;;0.80;0.50;;;12.20;99.90;;;;;;4994442;28;20168;-68
2022/05/05 01:43:31;;;;;;;0.80;0.50;;;12.20;99.90;;;;;;4993752;28;20478;-68
2022/05/05 01:45:57;;;;;;;0.80;0.50;;;12.30;99.90;;;;;;4992725;28;20420;-69
2022/05/05 01:48:23;;;;;;;0.80;0.63;;;12.30;99.90;;;;;;4994043;28;20582;-68
2022/05/05 01:50:48;;;;;;;0.80;0.50;;;12.30;99.90;;;;;;4994211;28;20427;-68
2022/05/05 01:53:14;;;;;;;0.80;0.50;;;12.30;99.90;;;;;;4992551;28;20200;-68
2022/05/05 01:55:40;;;;;;;0.80;0.50;;;12.20;99.90;;;;;;4994024;28;20524;-67
2022/05/05 01:58:06;;;;;;;0.80;0.50;;;12.20;99.90;;;;;;4994097;28;20446;-69
2022/05/05 02:00:32;;;;;;;0.80;0.50;;;12.20;99.90;;;;;;4992913;28;20172;-69
2022/05/05 02:02:58;;;;;;;0.80;0.50;;;12.20;99.90;;;;;;4994258;28;20173;-68
2022/05/05 02:05:24;;;;;;;0.80;0.50;;;12.20;99.90;;;;;;4993424;28;20420;-69
2022/05/05 02:07:49;;;;;;;0.83;0.57;;;12.30;99.90;;;;;;4994055;28;20463;-69
2022/05/05 02:10:17;;;;;;;1.00;0.60;;;12.30;99.90;;;;;;4992505;28;20447;-68
2022/05/05 02:12:44;;;;;;;0.80;0.50;;;12.40;99.90;;;;;;4993494;28;20184;-68
2022/05/05 02:15:12;;;;;;;0.80;0.50;;;12.40;99.90;;;;;;4993092;28;20404;-68
2022/05/05 02:17:39;;;;;;;1.17;0.77;;;12.40;99.90;;;;;;4987099;28;20470;-68
2022/05/05 02:20:08;;;;;;;0.90;0.80;;;12.50;99.90;;;;;;4993422;28;20454;-68
2022/05/05 02:22:33;;;;;;;0.80;0.60;;;12.60;99.90;;;;;;4993207;28;20470;-68
2022/05/05 02:24:59;;;;;;;0.80;0.50;;;12.60;99.90;;;;;;4993102;28;20722;-68
2022/05/05 02:27:25;;;;;;;0.80;0.60;;;12.70;99.90;;;;;;4993063;28;20921;-68
2022/05/05 02:29:51;;;;;;;0.80;0.50;;;12.70;99.90;;;;;;4993397;28;20168;-68
2022/05/05 02:32:18;;;;;;;0.80;0.50;;;12.80;99.90;;;;;;4993346;28;20542;-68
2022/05/05 02:34:46;;;;;;;0.80;0.60;;;12.80;99.90;;;;;;4993290;28;20857;-68
2022/05/05 02:39:58;;;;;;;0.80;0.50;;;12.90;99.90;;;;;;4992625;28;20423;-67
2022/05/05 02:42:23;;;;;;;0.80;0.70;;;12.90;99.90;;;;;;4993186;28;20447;-68
2022/05/05 02:44:49;;;;;;;0.80;0.50;;;13.00;99.90;;;;;;4992816;28;20396;-69
2022/05/05 02:47:15;;;;;;;0.80;0.50;;;13.00;99.90;;;;;;4992976;28;20180;-68
2022/05/05 02:49:41;;;;;;;0.80;0.50;;;13.00;99.90;;;;;;4992009;28;20180;-69
2022/05/05 02:52:08;;;;;;;0.80;0.50;;;13.00;99.90;;;;;;4992669;28;20192;-68
2022/05/05 02:54:55;;;;;;;0.80;0.50;;;13.00;99.90;;;;;;5012396;28;20434;-69
2022/05/05 02:57:23;;;;;;;0.80;0.50;;;13.10;99.90;;;;;;5014223;28;20463;-70
2022/05/05 02:59:49;;;;;;;0.80;0.50;;;13.10;99.90;;;;;;5013836;28;20945;-69
2022/05/05 03:02:16;;;;;;;0.80;0.50;;;13.10;99.90;;;;;;5015118;28;20428;-68
2022/05/05 03:04:42;;;;;;;0.80;0.60;;;13.10;99.90;;;;;;5013345;28;20428;-70
2022/05/05 03:07:11;;;;;;;0.80;0.50;;;13.10;99.90;;;;;;5014909;28;20487;-69
2022/05/05 03:09:39;;;;;;;0.90;0.63;;;13.20;99.90;;;;;;5030184;28;20419;-68
2022/05/05 03:12:05;;;;;;;0.80;0.50;;;13.10;99.90;;;;;;5013653;28;20431;-69
2022/05/05 03:14:31;;;;;;;1.00;0.60;;;13.10;99.90;;;;;;5014711;28;20411;-69
2022/05/05 03:16:58;;;;;;;0.90;0.70;;;13.10;99.90;;;;;;5013682;28;20482;-69
2022/05/05 03:19:24;;;;;;;0.80;0.50;;;13.10;99.90;;;;;;5011869;28;20291;-68
2022/05/05 03:21:49;;;;;;;0.80;0.50;;;13.10;99.90;;;;;;4992324;28;20837;-69
2022/05/05 03:24:15;;;;;;;0.80;0.50;;;13.00;99.90;;;;;;4992401;28;20404;-69
2022/05/05 03:26:40;;;;;;;0.80;0.50;;;13.00;99.90;;;;;;4992219;28;20259;-69
2022/05/05 03:29:06;;;;;;;0.80;0.60;;;13.00;99.90;;;;;;4992619;28;20562;-69
2022/05/05 03:31:32;;;;;;;0.80;0.50;;;12.90;99.90;;;;;;4992965;28;20657;-68
2022/05/05 03:33:58;;;;;;;0.90;0.60;;;12.90;99.90;;;;;;4992648;28;20187;-69
2022/05/05 03:36:24;;;;;;;0.80;0.50;;;12.80;99.90;;;;;;4992710;28;20455;-69
2022/05/05 03:38:54;;;;;;;0.80;0.50;;;12.80;99.90;;;;;;4992526;28;20527;-69
2022/05/05 03:41:20;;;;;;;0.80;0.50;;;12.70;99.90;;;;;;4992959;28;20169;-69
2022/05/05 03:43:45;;;;;;;0.80;0.50;;;12.70;99.90;;;;;;5013621;28;20404;-69
2022/05/05 03:46:11;;;;;;;0.80;0.50;;;12.60;99.90;;;;;;5011994;28;20491;-68
2022/05/05 03:48:37;;;;;;;0.80;0.50;;;12.60;99.90;;;;;;5030015;28;20227;-69
2022/05/05 03:51:03;;;;;;;0.80;0.50;;;12.50;99.90;;;;;;5016530;28;20187;-68
2022/05/05 03:53:28;;;;;;;0.80;0.50;;;12.40;99.90;;;;;;5017772;28;20188;-68
2022/05/05 03:55:54;;;;;;;0.80;0.50;;;12.40;99.90;;;;;;5017727;28;20196;-68
2022/05/05 03:58:19;;;;;;;0.80;0.50;;;12.40;99.90;;;;;;5018742;28;20183;-69
2022/05/05 04:00:46;;;;;;;0.80;0.50;;;12.40;99.90;;;;;;5017609;28;20188;-68
2022/05/05 04:06:02;;;;;;;0.70;0.50;;;12.30;99.90;;;;;;4995671;28;20430;-68
2022/05/05 04:08:28;;;;;;;0.80;0.63;;;12.30;99.90;;;;;;4995913;28;20436;-68
2022/05/05 04:10:54;;;;;;;0.80;0.50;;;12.30;99.90;;;;;;4995581;28;20782;-68
2022/05/05 04:13:20;;;;;;;1.10;0.70;;;12.30;99.90;;;;;;4996013;28;20400;-68
2022/05/05 04:15:46;;;;;;;0.80;0.60;;;12.30;99.90;;;;;;4995428;28;20185;-68
2022/05/05 04:18:12;;;;;;;0.80;0.50;;;12.30;99.90;;;;;;4995830;28;20464;-68
2022/05/05 04:20:38;;;;;;;0.80;0.50;;;12.30;99.90;;;;;;4994263;28;20444;-69
2022/05/05 04:23:04;;;;;;;0.77;0.50;;;12.30;99.90;;;;;;5012514;28;20236;-68
2022/05/05 04:25:30;;;;;;;1.00;0.70;;;12.30;99.90;;;;;;5017172;28;20424;-68
2022/05/05 04:27:56;;;;;;;0.80;0.50;;;12.30;99.90;;;;;;5017005;28;20439;-70
2022/05/05 04:30:21;;;;;;;1.20;1.10;;;12.30;99.90;;;;;;5000143;28;20462;-68
2022/05/05 04:32:47;;;;;;;0.80;0.50;;;12.30;99.90;;;;;;4994405;28;20181;-69
2022/05/05 04:35:14;;;;;;;1.47;0.70;;;12.30;99.90;;;;;;4995334;28;20227;-68
2022/05/05 04:37:40;;;;;;;1.00;0.70;;;12.30;99.90;;;;;;4995354;28;20204;-68
2022/05/05 04:40:08;;;;;;;0.80;0.50;;;12.40;99.90;;;;;;4995436;28;20415;-69
2022/05/05 04:42:33;;;;;;;0.77;0.50;;;12.40;99.90;;;;;;4995125;28;20267;-69
2022/05/05 04:44:59;;;;;;;0.77;0.50;;;12.40;99.90;;;;;;4993709;28;20884;-68
2022/05/05 04:47:24;;;;;;;0.80;0.50;;;12.40;99.90;;;;;;4995378;28;20219;-69
2022/05/05 04:49:51;;;;;;;0.77;0.50;;;12.40;99.90;;;;;;4995496;28;20173;-70
2022/05/05 04:52:16;;;;;;;0.80;0.50;;;12.50;99.90;;;;;;4995296;28;20181;-68
2022/05/05 04:54:42;;;;;;;0.80;0.50;;;12.50;99.90;;;;;;4994846;28;20431;-70
2022/05/05 04:57:08;;;;;;;0.80;0.50;;;12.50;99.90;;;;;;4994785;28;20696;-69
2022/05/05 04:59:33;;;;;;;0.90;0.80;;;12.50;99.90;;;;;;4995082;28;20416;-69
2022/05/05 05:01:59;;;;;;;1.00;0.60;;;12.60;99.90;;;;;;4996431;28;20184;-68
2022/05/05 05:04:29;;;;;;;7.40;1.77;;;12.60;99.90;;;;;;5016711;28;20212;-66
2022/05/05 05:06:55;;;;;;;0.90;0.80;;;12.60;99.90;;;;;;5033214;28;20204;-69
2022/05/05 05:09:21;;;;;;;0.80;0.63;;;12.60;99.90;;;;;;5016006;28;20440;-70
2022/05/05 05:11:46;;;;;;;1.33;0.97;;;12.70;99.90;;;;;;5015649;28;20188;-68
2022/05/05 05:14:12;;;;;;;1.57;1.13;;;12.70;99.90;;;;;;5016764;28;20563;-71
2022/05/05 05:16:37;;;;;;;1.10;1.00;;;12.70;99.90;;;;;;5007869;28;20304;-68
2022/05/05 05:19:03;;;;;;;1.83;1.10;;;12.80;99.90;;;;;;4995142;28;20246;-69
2022/05/05 05:21:29;;;;;;;0.80;0.70;;;12.90;99.90;;;;;;4995537;28;20169;-68
2022/05/05 05:23:54;;;;;;;1.00;0.60;;;12.90;99.90;;;;;;4995056;28;20288;-69
2022/05/05 05:26:20;;;;;;;0.90;0.67;;;13.00;99.90;;;;;;4993422;28;20185;-68
2022/05/05 05:28:45;;;;;;;0.80;0.60;;;13.10;99.90;;;;;;4994348;28;20189;-68
2022/05/05 05:31:11;;;;;;;0.90;0.60;;;13.20;99.90;;;;;;5009240;28;20272;-69
2022/05/05 05:33:36;;;;;;;1.40;0.77;;;13.40;99.90;;;;;;5001694;28;20248;-69
2022/05/05 05:36:02;;;;;;;1.27;1.03;;;13.50;99.90;;;;;;5010486;28;20701;-69
2022/05/05 05:38:28;;;;;;;1.10;1.00;;;13.70;99.90;;;;;;4994938;28;20560;-69
2022/05/05 05:40:54;;;;;;;0.80;0.50;;;13.90;99.90;;;;;;4994898;28;20181;-69
2022/05/05 05:43:20;;;;;;;0.80;0.70;;;14.10;99.90;;;;;;4994912;28;20168;-68
2022/05/05 05:45:46;;;;;;;4.13;1.20;;;14.40;99.90;;;;;;4993598;28;20819;-68
2022/05/05 05:48:12;;;;;;;1.00;0.60;;;14.70;99.90;;;;;;4994095;28;20197;-69
2022/05/05 05:50:37;;;;;;;0.80;0.60;;;15.00;99.90;;;;;;4993868;28;20172;-69
2022/05/05 05:53:03;;;;;;;1.00;0.80;;;15.30;99.90;;;;;;4994536;28;20260;-69
2022/05/05 05:55:29;;;;;;;1.03;0.60;;;15.60;99.90;;;;;;4994458;28;20649;-69
2022/05/05 05:57:55;;;;;;;2.30;2.20;;;15.90;99.90;;;;;;4993909;28;21159;-69
2022/05/05 06:00:20;;;;;;;4.40;0.90;;;16.10;99.90;;;;;;4994899;28;20550;-70
2022/05/05 06:05:30;;;;;;;0.80;0.70;;;16.40;99.90;;;;;;5010800;28;20199;-69
2022/05/05 06:08:00;;;;;;;2.27;1.17;;;16.70;99.90;;;;;;5007756;28;20439;-69
2022/05/05 06:10:27;;;;;;;2.30;1.57;;;16.90;99.90;;;;;;5008086;28;20177;-69
2022/05/05 06:12:53;;;;;;;0.80;0.50;;;17.10;99.90;;;;;;4993475;28;20412;-68
2022/05/05 06:15:19;;;;;;;1.10;0.73;;;17.20;99.90;;;;;;4993219;28;20416;-69
2022/05/05 06:17:45;;;;;;;1.73;1.27;;;17.30;99.90;;;;;;4993100;28;20478;-69
2022/05/05 06:20:11;;;;;;;2.27;0.93;;;17.60;99.90;;;;;;4993488;28;20408;-69
2022/05/05 06:22:39;;;;;;;2.13;0.97;;;17.90;99.90;;;;;;5004637;28;20223;-71
2022/05/05 06:25:06;;;;;;;1.03;0.80;;;18.50;99.90;;;;;;5004954;28;20427;-70
2022/05/05 06:27:31;;;;;;;0.80;0.50;;;19.10;99.90;;;;;;5005970;28;20440;-70
2022/05/05 06:29:57;;;;;;;2.10;0.80;;;19.70;99.90;;;;;;4995177;28;20420;-70
2022/05/05 06:32:23;;;;;;;17.33;1.90;;;19.90;99.90;;;;;;4994075;28;20650;-69
2022/05/05 06:34:48;;;;;;;1.10;1.00;;;19.90;99.90;;;;;;4993137;28;20169;-70
2022/05/05 06:37:14;;;;;;;0.80;0.60;;;20.20;99.90;;;;;;4992951;28;20211;-67
2022/05/05 06:39:39;;;;;;;0.97;0.80;;;20.80;99.90;;;;;;4992850;28;20177;-67
2022/05/05 06:42:05;;;;;;;1.17;1.00;;;21.40;99.90;;;;;;4992981;28;20540;-67
2022/05/05 06:44:31;;;;;;;1.13;1.03;;;21.90;99.90;;;;;;4991639;28;20195;-67
2022/05/05 06:46:58;;;;;;;1.87;1.50;;;22.30;99.90;;;;;;4993267;28;20746;-69
2022/05/05 06:49:24;;;;;;;1.00;0.80;;;22.60;99.90;;;;;;4993184;28;20196;-68
2022/05/05 06:51:50;;;;;;;1.33;1.20;;;22.90;99.90;;;;;;4994188;28;20443;-68
2022/05/05 06:54:15;;;;;;;1.07;0.80;;;23.20;99.90;;;;;;4993575;28;20434;-69
2022/05/05 06:56:41;;;;;;;2.13;1.67;;;23.70;99.90;;;;;;4993587;28;20537;-68
2022/05/05 06:59:06;;;;;;;2.23;1.37;;;24.20;99.90;;;;;;4992695;28;20189;-68
2022/05/05 07:07:00;;;;;;;2.03;0.97;;;24.70;94.50;;;;;;4992777;28;20427;-68
2022/05/05 07:12:10;;;;;;;1.33;0.83;;;24.70;91.20;;;;;;4999114;28;20239;-67
2022/05/05 07:14:36;;;;;;;1.60;0.87;;;24.90;90.20;;;;;;4992692;28;20408;-69
2022/05/05 07:17:01;;;;;;;0.80;0.60;;;24.90;87.30;;;;;;4992630;28;20262;-69
2022/05/05 07:19:27;;;;;;;0.90;0.70;;;25.10;84.90;;;;;;4992883;28;20165;-68
2022/05/05 07:21:53;;;;;;;2.60;1.00;;;25.20;82.70;;;;;;4991391;28;20259;-68
2022/05/05 07:24:19;;;;;;;1.63;1.10;;;25.40;80.90;;;;;;4993213;28;20662;-69
2022/05/05 07:26:46;;;;;;;1.20;1.10;;;25.60;79.10;;;;;;5018973;28;20423;-68
2022/05/05 07:29:11;;;;;;;0.90;0.67;;;25.80;77.20;;;;;;5001838;28;20685;-67
2022/05/05 07:31:37;;;;;;;1.33;1.00;;;26.10;75.60;;;;;;5011933;28;20405;-69
2022/05/05 07:34:02;;;;;;;1.10;0.80;;;26.50;74.10;;;;;;5018510;28;20207;-68
2022/05/05 07:36:28;;;;;;;1.60;0.70;;;27.00;72.50;;;;;;5014910;28;20219;-68
2022/05/05 07:38:54;;;;;;;1.70;1.10;;;27.50;70.80;;;;;;4998885;28;20188;-69
2022/05/05 07:41:19;;;;;;;1.20;0.67;;;28.00;68.80;;;;;;4998990;28;20184;-68
2022/05/05 07:43:45;;;;;;;1.57;0.70;;;28.60;67.60;;;;;;4999003;28;20177;-69
2022/05/05 07:46:10;;;;;;;1.00;0.90;;;29.00;64.40;;;;;;5004071;28;20173;-69
2022/05/05 07:48:36;;;;;;;1.47;1.37;;;29.50;62.30;;;;;;5012345;28;20295;-70
2022/05/05 07:51:01;;;;;;;1.63;1.07;;;30.00;61.20;;;;;;5001362;28;20176;-68
2022/05/05 07:53:27;;;;;;;1.00;0.80;;;30.60;58.80;;;;;;4998589;28;20173;-68
2022/05/05 07:55:52;;;;;;;2.40;1.00;;;31.20;57.50;;;;;;4998452;28;20220;-70
2022/05/05 07:58:18;;;;;;;1.47;0.80;;;31.80;56.10;;;;;;4998191;28;20287;-68
2022/05/05 08:00:43;;;;;;;1.20;0.97;;;32.50;54.70;;;;;;4998568;28;20280;-69
2022/05/05 08:03:09;;;;;;;1.10;0.97;;;33.30;53.20;;;;;;4997623;28;20183;-69
2022/05/05 08:05:34;;;;;;;1.37;1.07;;;34.20;51.50;;;;;;4997791;28;20531;-69
2022/05/05 08:08:00;;;;;;;1.10;0.80;;;35.00;50.50;;;;;;4998688;28;20678;-69
2022/05/05 08:10:28;;;;;;;1.07;0.97;;;35.80;48.20;;;;;;4998059;28;20180;-69
2022/05/05 08:12:54;;;;;;;0.90;0.80;;;36.60;46.70;;;;;;5004699;28;20173;-70
2022/05/05 08:15:20;;;;;;;6.60;1.23;;;37.40;45.20;;;;;;5017181;28;20918;-71
2022/05/05 08:17:47;;;;;;;1.00;0.90;;;38.30;44.00;;;;;;5002455;28;20236;-68
2022/05/05 08:20:13;;;;;;;1.77;1.53;;;39.10;42.80;;;;;;4998540;28;20177;-69
2022/05/05 08:22:39;;;;;;;3.10;1.17;;;39.80;41.40;;;;;;4998561;28;20475;-70
2022/05/05 08:30:34;;;;;;;2.60;1.40;;;41.50;37.80;;;;;;4999269;28;20916;-70
2022/05/05 08:32:59;;;;;;;1.83;1.73;;;42.30;36.60;;;;;;4998956;28;20400;-70
2022/05/05 08:35:27;;;;;;;1.03;0.93;;;43.00;35.60;;;;;;4998818;28;20169;-69
2022/05/05 08:37:53;;;;;;;1.13;1.03;;;43.80;34.60;;;;;;4995765;28;20200;-70
2022/05/05 08:40:23;;;;;;;1.10;1.00;;;44.40;33.30;;;;;;4995365;28;20417;-70
2022/05/05 08:42:48;;;;;;;1.43;1.33;;;44.90;32.10;;;;;;4995329;28;20383;-67
2022/05/05 08:45:14;;;;;;;1.10;1.00;;;45.40;31.50;;;;;;4994036;28;20383;-69
2022/05/05 08:47:42;;;;;;;1.20;1.10;;;45.90;30.80;;;;;;4994978;28;20481;-69
2022/05/05 08:50:10;;;;;;;1.90;1.50;;;46.40;30.00;;;;;;4995179;28;20169;-69
2022/05/05 08:52:42;;;;;;;1.80;1.50;;;47.00;29.60;;;;;;4994540;28;20398;-69
2022/05/05 08:55:13;;;;;;;1.20;1.10;;;47.60;28.90;;;;;;4994588;28;20502;-69
2022/05/05 08:57:39;;;;;;;1.60;1.50;;;48.20;28.40;;;;;;4995052;28;20442;-69
2022/05/05 09:00:05;;;;;;;1.13;1.03;;;48.80;28.00;;;;;;4993816;28;20397;-69
2022/05/05 09:02:31;;;;;;;1.60;1.07;;;49.40;27.40;;;;;;4995051;28;20173;-69
2022/05/05 09:04:56;;;;;;;1.20;1.10;;;50.00;27.10;;;;;;4994342;28;20420;-69
2022/05/05 09:07:22;;;;;;;1.40;1.30;;;50.30;26.80;;;;;;4994820;28;20192;-69
2022/05/05 09:09:50;;;;;;;1.70;1.60;;;50.10;26.50;;;;;;4994565;28;20570;-69
2022/05/05 09:12:16;;;;;;;1.20;1.10;;;49.90;26.30;;;;;;4997679;28;20375;-70
2022/05/05 09:14:50;;;;;;;1.23;1.13;;;50.20;26.10;;;;;;5010907;28;20390;-70
2022/05/05 09:17:28;;;;;;;1.20;1.10;;;50.40;25.80;;;;;;5008784;28;20430;-70
2022/05/05 09:19:57;;;;;;;1.47;1.37;;;49.70;25.70;;;;;;5012502;28;20414;-70
2022/05/05 09:22:24;;;;;;;1.37;1.27;;;49.70;25.70;;;;;;5015220;28;20395;-68
2022/05/05 09:24:52;;;;;;;1.20;1.10;;;50.00;25.50;;;;;;5007726;28;20390;-72
2022/05/05 09:27:21;;;;;;;1.17;1.07;;;50.50;25.40;;;;;;5006791;28;20431;-72
2022/05/05 09:30:02;;;;;;;1.40;1.30;;;51.00;25.00;;;;;;4995585;28;20395;-69
2022/05/05 09:32:30;;;;;;;1.33;1.23;;;51.50;24.60;;;;;;4994249;28;20755;-69
2022/05/05 09:35:02;;;;;;;1.30;1.20;;;51.20;24.10;;;;;;4992842;28;20521;-70
2022/05/05 09:37:28;;;;;;;1.30;1.20;;;50.30;24.10;;;;;;4994107;28;20434;-69
2022/05/05 09:39:58;;;;;;;1.30;1.20;;;50.10;24.20;;;;;;4994371;28;20393;-70
2022/05/05 09:42:43;;;;;;;1.40;1.10;;;49.50;24.10;;;;;;4994065;28;20451;-70
2022/05/05 09:45:18;;;;;;;1.20;1.10;;;49.00;24.20;;;;;;4993696;28;20385;-69
2022/05/05 09:47:54;;;;;;;1.30;1.20;;;48.70;24.30;;;;;;4993551;28;20525;-70
2022/05/05 09:50:22;;;;;;;1.40;1.30;;;48.80;24.40;;;;;;4993955;28;20398;-69
2022/05/05 09:58:35;;;;;;;1.30;1.20;;;49.30;24.10;;;;;;4967192;28;20464;-71
2022/05/05 10:01:08;;;;;;;1.23;1.13;;;49.70;24.00;;;;;;4993903;28;20408;-70
2022/05/05 10:06:31;;;;;;;1.50;1.40;;;49.30;23.70;;;;;;4993215;28;20417;-70
2022/05/05 10:09:06;;;;;;;1.10;1.00;;;48.80;23.60;;;;;;4993585;28;20402;-69
2022/05/05 10:11:34;;;;;;;1.47;1.37;;;48.80;23.80;;;;;;4993714;28;20449;-70
2022/05/05 10:14:01;;;;;;;1.40;1.30;;;49.10;23.80;;;;;;4993637;28;20433;-69
2022/05/05 10:16:27;;;;;;;4.10;1.50;;;49.60;23.80;;;;;;4992995;28;20426;-70
2022/05/05 10:18:53;;;;;;;1.30;1.20;;;50.20;23.70;;;;;;4993288;28;20446;-69
2022/05/05 10:21:21;;;;;;;1.70;1.60;;;50.90;23.60;;;;;;4993488;28;20406;-70
2022/05/05 10:24:01;;;;;;;1.40;1.30;;;51.80;23.60;;;;;;4993541;28;20169;-70
2022/05/05 10:26:26;;;;;;;1.87;1.77;;;52.60;23.40;;;;;;4992036;28;20386;-71
2022/05/05 10:28:52;;;;;;;1.40;1.30;;;53.50;23.20;;;;;;4994025;28;20462;-72
2022/05/05 10:31:30;;;;;;;1.60;1.50;;;54.30;23.10;;;;;;5012175;28;20180;-71
2022/05/05 10:34:14;;;;;;;1.80;1.70;;;55.20;23.00;;;;;;5027605;28;20455;-72
2022/05/05 10:36:57;;;;;;;1.60;1.50;;;55.80;22.80;;;;;;5010321;28;20416;-72
2022/05/05 10:39:23;;;;;;;2.10;2.00;;;56.40;22.50;;;;;;4999716;28;20464;-71
2022/05/05 10:41:51;;;;;;;1.77;1.67;;;56.80;22.30;;;;;;5004496;28;20416;-72
2022/05/05 10:44:16;;;;;;;2.17;2.07;;;57.10;22.20;;;;;;5005325;28;20511;-72
2022/05/05 10:46:57;;;;;;;1.90;1.80;;;57.50;22.10;;;;;;5024016;28;20475;-73
2022/05/05 10:49:37;;;;;;;2.00;1.90;;;57.70;21.90;;;;;;5024741;28;20192;-71
2022/05/05 10:52:09;;;;;;;2.33;2.23;;;58.00;21.90;;;;;;5025175;28;20424;-72
2022/05/05 10:54:36;;;;;;;2.43;2.33;;;58.20;21.70;;;;;;5024925;28;20464;-71
2022/05/05 10:57:27;;;;;;;2.93;2.73;;;58.20;21.20;;;;;;5010115;28;20434;-72
2022/05/05 11:00:08;;;;;;;2.20;2.10;;;58.20;21.10;;;;;;5025091;28;20416;-71
2022/05/05 11:02:35;;;;;;;2.57;2.37;;;57.70;20.80;;;;;;5027429;28;20427;-71
2022/05/05 11:05:23;;;;;;;1.73;1.63;;;56.40;20.50;;;;;;5010692;28;20443;-72
2022/05/05 11:07:51;;;;;;;2.17;1.97;;;55.20;20.70;;;;;;5003906;28;20500;-71
2022/05/05 11:11:39;;;;;;;1.63;1.53;;;53.70;20.70;;;;;;5006836;28;20972;-72
2022/05/05 11:13:42;;;;;;;1.30;1.20;;;51.70;20.90;;;;;;5010216;28;20419;-71
2022/05/05 11:22:24;;;;;;;1.60;1.50;;;50.40;22.10;;;;;;5008632;28;20396;-71
2022/05/05 11:24:51;;;;;;;2.47;2.30;;;51.50;21.90;;;;;;5007460;28;20415;-71
2022/05/05 11:27:25;;;;;;;1.50;1.40;;;52.30;21.80;;;;;;5008542;28;20421;-71
2022/05/05 11:29:55;;;;;;;1.80;1.70;;;53.40;21.60;;;;;;5008658;28;20425;-71
2022/05/05 11:32:35;;;;;;;1.70;1.60;;;54.60;21.50;;;;;;5009572;28;20423;-72
2022/05/05 11:35:01;;;;;;;2.03;1.93;;;55.40;21.20;;;;;;5010459;28;20426;-70
2022/05/05 11:37:31;;;;;;;1.77;1.67;;;55.80;21.10;;;;;;5010988;28;20474;-70
2022/05/05 11:40:00;;;;;;;1.90;1.80;;;56.00;21.00;;;;;;5011182;28;20420;-71
2022/05/05 11:42:27;;;;;;;1.70;1.60;;;56.30;21.00;;;;;;5009648;28;20395;-72
2022/05/05 11:44:53;;;;;;;1.50;1.40;;;56.30;20.90;;;;;;5004647;28;20755;-69
2022/05/05 11:47:20;;;;;;;2.10;2.00;;;55.20;20.70;;;;;;4992374;28;20456;-70
2022/05/05 11:49:47;;;;;;;1.93;1.83;;;53.90;20.90;;;;;;4992447;28;20169;-69
2022/05/05 11:52:21;;;;;;;2.10;2.00;;;53.90;21.30;;;;;;4992402;28;20391;-70
2022/05/05 11:54:52;;;;;;;1.70;1.60;;;54.80;21.30;;;;;;4988287;28;20443;-70
2022/05/05 11:57:38;;;;;;;2.03;1.93;;;56.00;21.20;;;;;;4990785;28;20386;-70
2022/05/05 12:02:50;;;;;;;1.80;1.70;;;55.60;20.70;;;;;;5003929;28;20920;-72
2022/05/05 12:05:16;;;;;;;2.00;1.90;;;55.20;20.80;;;;;;5007163;28;20424;-71
2022/05/05 12:07:46;;;;;;;1.80;1.70;;;55.10;20.80;;;;;;5009385;28;20208;-71
2022/05/05 12:10:14;;;;;;;1.50;1.40;;;54.90;20.70;;;;;;5005390;28;20408;-70
2022/05/05 12:12:44;;;;;;;1.37;1.27;;;53.40;20.50;;;;;;4995004;28;20400;-69
2022/05/05 12:15:12;;;;;;;1.30;1.20;;;51.50;20.60;;;;;;4995653;28;20843;-70
2022/05/05 12:17:47;;;;;;;1.10;1.00;;;49.50;20.80;;;;;;4995521;28;20443;-70
2022/05/05 12:20:15;;;;;;;1.30;1.20;;;47.60;21.10;;;;;;4994568;28;20966;-69
2022/05/05 12:22:52;;;;;;;1.27;1.17;;;45.70;21.50;;;;;;4995585;28;20756;-69
2022/05/05 12:25:18;;;;;;;1.40;1.30;;;44.20;21.90;;;;;;5006311;28;20378;-71
2022/05/05 12:27:44;;;;;;;1.70;1.60;;;42.80;22.10;;;;;;5004941;28;20463;-71
2022/05/05 12:30:12;;;;;;;1.30;1.20;;;42.10;22.70;;;;;;5006645;28;20427;-69
2022/05/05 12:32:51;;;;;;;1.23;1.13;;;41.50;23.00;;;;;;4994327;28;20401;-70
2022/05/05 12:35:27;;;;;;;1.10;1.00;;;41.40;23.30;;;;;;4995163;28;20779;-69
2022/05/05 12:37:57;;;;;;;1.40;1.30;;;41.60;23.50;;;;;;5001800;28;20472;-70
2022/05/05 12:40:22;;;;;;;2.20;2.00;;;41.40;23.40;;;;;;4995405;28;20455;-70
2022/05/05 12:42:50;;;;;;;1.30;1.20;;;41.20;23.60;;;;;;4995006;28;20886;-70
2022/05/05 12:45:15;;;;;;;1.17;1.07;;;41.00;23.70;;;;;;5001564;28;20185;-72
2022/05/05 12:47:45;;;;;;;1.10;1.00;;;40.30;23.80;;;;;;5024896;28;20471;-72
2022/05/05 12:50:31;;;;;;;1.30;1.20;;;39.40;24.00;;;;;;5004315;28;20177;-69
2022/05/05 13:01:20;;;;;;;1.20;1.00;;;37.50;25.70;;;;;;4994623;28;20411;-70
2022/05/05 13:03:46;;;;;;;1.80;1.50;;;39.20;25.80;;;;;;5003954;28;20413;-72
2022/05/05 13:06:13;;;;;;;1.30;1.00;;;40.80;25.60;;;;;;5022065;28;20454;-71
2022/05/05 13:08:38;;;;;;;1.60;1.50;;;42.20;25.20;;;;;;5012218;28;20513;-72
2022/05/05 13:11:04;;;;;;;1.57;1.13;;;43.50;24.80;;;;;;5014586;28;20395;-71
2022/05/05 13:13:29;;;;;;;1.57;1.47;;;44.70;24.40;;;;;;5015413;28;20173;-71
2022/05/05 13:15:55;;;;;;;1.20;1.10;;;45.80;24.00;;;;;;4994659;28;20535;-71
2022/05/05 13:18:20;;;;;;;1.60;1.50;;;46.70;23.70;;;;;;4993927;28;20196;-71
2022/05/05 13:20:46;;;;;;;1.23;1.13;;;47.50;23.40;;;;;;4994675;28;20754;-70
2022/05/05 13:23:11;;;;;;;1.57;1.23;;;47.70;23.10;;;;;;4993752;28;20177;-70
2022/05/05 13:25:37;;;;;;;1.30;1.20;;;47.20;23.00;;;;;;4994268;28;20223;-70
2022/05/05 13:28:03;;;;;;;1.63;1.53;;;46.40;23.00;;;;;;4994453;28;20215;-69
2022/05/05 13:30:29;;;;;;;1.50;1.40;;;45.20;22.90;;;;;;4994218;28;20185;-70
2022/05/05 13:32:55;;;;;;;1.67;1.20;;;43.90;23.00;;;;;;4994430;28;20407;-68
2022/05/05 13:35:20;;;;;;;1.17;1.07;;;42.60;23.30;;;;;;4994069;28;20192;-69
2022/05/05 13:37:46;;;;;;;1.27;1.17;;;41.70;23.80;;;;;;4994321;28;20192;-69
2022/05/05 13:40:12;;;;;;;1.60;1.50;;;41.20;24.10;;;;;;4994337;28;20185;-69
2022/05/05 13:42:37;;;;;;;1.23;1.13;;;41.10;24.50;;;;;;4993917;28;20424;-69
2022/05/05 13:45:03;;;;;;;1.13;1.03;;;41.30;24.70;;;;;;4995446;28;20176;-72